Bookmark and Share
Track history (hours):
 

Anna

Last reported at 2012-Aug-08 00:33 UTC. Time now 2014-Apr-18 03:09 UTC.
Position N 39°31' E 025°39'.
Warning: this ship's position is years out of date!

Length 100 m; draft 4.5 m.

Type: Cargo ship. MMSI: 305025000.

NotesDate/timePositionNaut miles runAvg speedWind from/ knotsBaromVisibWave heightAir tempDewpointWater temp
2012-Aug-08 00:33N 39°31' E 025°39'3912.9
2012-Aug-07 21:33N 38°56' E 025°16'1312.6
2012-Aug-07 20:33N 38°45' E 025°09'1412.5
2012-Aug-07 19:27N 38°33' E 025°02'1112.5
2012-Aug-07 18:32N 38°22' E 024°55'3712.4
2012-Aug-07 15:33N 37°49' E 024°34'10 9.7
2012-Aug-07 14:33N 37°40' E 024°29'9 8.7
2012-Aug-07 13:33N 37°32' E 024°24'8 7.7
2012-Aug-07 12:33N 37°26' E 024°19'8 7.5
2012-Aug-07 11:33N 37°19' E 024°15'8 7.7
2012-Aug-07 10:34N 37°12' E 024°11'8 7.9
2012-Aug-07 09:33N 37°05' E 024°06'9 8.6
2012-Aug-07 08:33N 36°57' E 024°02'9 8.7
2012-Aug-07 07:33N 36°50' E 023°57'8 8.1
2012-Aug-07 06:33N 36°44' E 023°50'8 8.4
2012-Aug-07 05:33N 36°39' E 023°41'9 9.7
2012-Aug-07 04:36N 36°33' E 023°33'1110.6
2012-Aug-07 03:33N 36°26' E 023°22'1110.8
2012-Aug-07 02:33N 36°21' E 023°10'11412.5
2012-Aug-06 17:24N 36°23' E 020°48'1112.4
2012-Aug-06 16:32N 36°23' E 020°35'11412.7
2012-Aug-06 07:33N 36°25' E 018°13'1312.7
2012-Aug-06 06:32N 36°25' E 017°57'5112.8
2012-Aug-06 02:33N 36°27' E 016°54'1212.4
2012-Aug-06 01:33N 36°27' E 016°38'1212.4
2012-Aug-06 00:33N 36°27' E 016°23'1212.4
2012-Aug-05 23:33N 36°28' E 016°08'1312.7
2012-Aug-05 22:33N 36°28' E 015°52'1312.7
2012-Aug-05 21:33N 36°28' E 015°36'3712.2
2012-Aug-05 18:29N 36°29' E 014°49'25912.4
2012-Aug-04 21:33N 38°07' E 009°48'1212.0
2012-Aug-04 20:33N 38°13' E 009°35'1211.9
2012-Aug-04 19:32N 38°19' E 009°21'1212.4
2012-Aug-04 18:33N 38°25' E 009°07'6412.8
2012-Aug-04 13:32N 39°04' E 008°02'1312.7
2012-Aug-04 12:32N 39°15' E 007°54'1413.8
2012-Aug-04 11:31N 39°27' E 007°46'9 9.4
2012-Aug-04 10:35N 39°35' E 007°41'12013.3
2012-Aug-04 01:30N 41°22' E 006°28'3233.3
2012-Aug-04 00:33N 41°50' E 006°08'1110.7
2012-Aug-03 23:33N 41°59' E 006°01'1211.9
2012-Aug-03 22:33N 42°10' E 005°54'1212.0
2012-Aug-03 21:30N 42°21' E 005°45'1616.4
2012-Aug-03 20:33N 42°35' E 005°36'1615.4
2012-Aug-03 19:31N 42°49' E 005°26'1 1.2
2012-Aug-03 18:33N 42°48' E 005°27'1413.7
2012-Aug-03 17:33N 43°00' E 005°19'1413.9
2012-Aug-03 16:33N 43°13' E 005°11'1110.5
2012-Aug-03 15:33N 43°21' E 005°20'0 0.2
2012-Aug-03 14:32N 43°21' E 005°20'0 0.0
2012-Aug-03 13:32N 43°21' E 005°20'0 0.0
2012-Aug-03 12:32N 43°21' E 005°20'0 0.0
2012-Aug-03 11:32N 43°21' E 005°20'0 0.0
2012-Aug-03 10:35N 43°21' E 005°20'0 0.0
2012-Aug-03 09:32N 43°21' E 005°20'0 0.0
2012-Aug-03 08:32N 43°21' E 005°20'0 0.0
2012-Aug-03 07:32N 43°21' E 005°20'0 0.0
2012-Aug-03 06:33N 43°21' E 005°20'8 7.5
2012-Aug-03 05:33N 43°16' E 005°12'1111.9
2012-Aug-03 04:37N 43°05' E 005°09'1211.8
2012-Aug-03 03:33N 42°53' E 005°05'6220.5
2012-Aug-03 00:33N 41°52' E 004°52'1010.0
2012-Aug-02 23:32N 41°42' E 004°50'3014.6
2012-Aug-02 21:30N 41°13' E 004°44'4 4.1
2012-Aug-02 20:32N 41°09' E 004°43'1413.7
2012-Aug-02 19:32N 40°55' E 004°41'2 0.5
2012-Aug-02 16:32N 40°57' E 004°40'1110.8
2012-Aug-02 15:32N 40°46' E 004°38'1110.4
2012-Aug-02 14:31N 40°36' E 004°36'1312.7
2012-Aug-02 13:28N 40°22' E 004°33'1313.8
2012-Aug-02 12:33N 40°10' E 004°30'1514.2
2012-Aug-02 11:32N 39°56' E 004°27'1314.4
2012-Aug-02 10:36N 39°43' E 004°23'1413.6
2012-Aug-02 09:33N 39°29' E 004°17'1414.3
2012-Aug-02 08:33N 39°16' E 004°11'1513.7
2012-Aug-02 07:26N 39°01' E 004°04'1213.7
2012-Aug-02 06:33N 38°50' E 003°59'1413.8
2012-Aug-02 05:33N 38°37' E 003°54'1313.5
2012-Aug-02 04:36N 38°24' E 003°48'1614.5
2012-Aug-02 03:32N 38°10' E 003°41'1414.1
2012-Aug-02 02:34N 37°57' E 003°36'1514.3
2012-Aug-02 01:29N 37°42' E 003°29'51 1.2
2012-Jul-31 07:33N 36°53' E 003°17'1414.1
2012-Jul-31 06:33N 36°56' E 003°34'1413.8
2012-Jul-31 05:32N 36°59' E 003°51'  

Dump ship's entire track history

sailing weather and tide predictions

Anna — V2CK2 — position and weather